< Typhoon 198714 1987 Season Typhoon 198716 >
Typhoon 198715 (HOLLY)
General InformationTrack Information on Google MapsDetailed Wind InformationList of All Images || Disaster Info.ResourceGoogle EarthGE AnimationAtom FeedGeoJSON
Detalied Best Track (Time Zone = UTC)
Year Month Day Hour Lat. Long. Pressure (hPa) Wind (kt) Class Image Chart
1987 9 5 00 11.5 170.0 1008 0 2 Image Chart
1987 9 5 06 11.8 169.1 1006 0 2 Image Chart
1987 9 5 12 12.0 168.1 1004 0 2 Image Chart
1987 9 5 18 12.2 167.1 1000 35 3 Image Chart
1987 9 6 00 12.4 166.3 996 40 3 Image Chart
1987 9 6 06 12.7 165.4 994 45 3 Image Chart
1987 9 6 12 13.0 164.5 990 50 4 Image Chart
1987 9 6 18 13.4 163.7 985 55 4 Image Chart
1987 9 7 00 13.7 162.8 975 65 5 Image Chart
1987 9 7 06 14.2 162.1 955 75 5 Image Chart
1987 9 7 12 14.8 161.4 940 85 5 Image Chart
1987 9 7 18 15.3 160.7 930 90 5 Image Chart
1987 9 8 00 15.9 159.9 920 100 5 Image Chart
1987 9 8 06 16.4 159.1 910 100 5 Image Chart
1987 9 8 12 16.9 158.3 905 110 5 Image Chart
1987 9 8 18 17.4 157.7 900 110 5 Image Chart
1987 9 9 00 17.7 156.7 900 110 5 Image Chart
1987 9 9 06 18.1 156.1 900 110 5 Image Chart
1987 9 9 12 18.4 155.7 900 110 5 Image Chart
1987 9 9 18 18.8 155.5 900 110 5 Image Chart
1987 9 10 00 19.4 155.5 900 110 5 Image Chart
1987 9 10 06 20.1 155.4 910 105 5 Image Chart
1987 9 10 12 20.7 155.5 915 100 5 Image Chart
1987 9 10 18 21.4 155.8 920 100 5 Image Chart
1987 9 11 00 22.2 155.9 925 90 5 Image Chart
1987 9 11 06 23.1 155.9 925 90 5 Image Chart
1987 9 11 12 24.2 155.8 930 90 5 Image Chart
1987 9 11 18 25.1 155.4 930 90 5 Image Chart
1987 9 12 00 25.5 155.2 935 85 5 Image Chart
1987 9 12 06 26.0 155.1 940 80 5 Image Chart
1987 9 12 12 26.3 155.2 950 80 5 Image Chart
1987 9 12 18 26.5 155.4 955 80 5 Image Chart
1987 9 13 00 26.8 155.7 960 75 5 Image Chart
1987 9 13 06 27.0 156.4 960 75 5 Image Chart
1987 9 13 12 27.1 157.1 960 75 5 Image Chart
1987 9 13 18 27.4 157.9 960 75 5 Image Chart
1987 9 14 00 27.9 158.4 965 60 4 Image Chart
1987 9 14 06 28.3 158.6 970 55 4 Image Chart
1987 9 14 12 28.5 158.7 970 50 4 Image Chart
1987 9 14 18 28.7 158.8 975 50 4 Image Chart
1987 9 15 00 29.1 158.9 975 50 4 Image Chart
1987 9 15 06 29.3 158.8 980 60 4 Image Chart
1987 9 15 12 29.5 158.6 985 55 4 Image Chart
1987 9 15 18 29.8 158.4 985 50 4 Image Chart
1987 9 16 00 30.1 158.3 990 45 3 Image Chart
1987 9 16 06 30.4 158.2 990 45 3 Image Chart
1987 9 16 12 30.9 158.1 990 45 3 Image Chart
1987 9 16 18 31.7 158.4 990 45 3 Image Chart
1987 9 17 00 32.3 159.4 992 40 3 Image Chart
1987 9 17 06 33.4 159.8 992 40 3 Image Chart
1987 9 17 12 34.9 160.0 992 35 3 Image Chart
1987 9 17 18 36.5 160.2 994 0 6 Image Chart
1987 9 18 00 38.5 160.8 994 0 6 Image Chart
1987 9 18 06 41.0 162.0 996 0 6 Image Chart
Japan Meteorological Agency Best Track Data | Correction Date : 1992-10-21
< Typhoon 198714 1987 Season Typhoon 198716 >

Help